sensor_id;sensor_type;location;lat;lon;timestamp;temperature;humidity
25945;SHT31;13742;49.306;8.636;2023-03-07T00:00:16;4.09;72.81
25945;SHT31;13742;49.306;8.636;2023-03-07T00:01:34;4.09;72.85
25945;SHT31;13742;49.306;8.636;2023-03-07T00:02:16;4.08;72.87
25945;SHT31;13742;49.306;8.636;2023-03-07T00:03:17;4.08;72.76
25945;SHT31;13742;49.306;8.636;2023-03-07T00:04:16;4.06;72.86
25945;SHT31;13742;49.306;8.636;2023-03-07T00:05:17;4.06;72.87
25945;SHT31;13742;49.306;8.636;2023-03-07T00:06:16;4.08;72.93
25945;SHT31;13742;49.306;8.636;2023-03-07T00:07:16;4.09;72.85
25945;SHT31;13742;49.306;8.636;2023-03-07T00:08:16;4.08;72.91
25945;SHT31;13742;49.306;8.636;2023-03-07T00:09:16;4.09;72.86
25945;SHT31;13742;49.306;8.636;2023-03-07T00:10:16;4.05;72.83
25945;SHT31;13742;49.306;8.636;2023-03-07T00:11:17;4.06;72.86
25945;SHT31;13742;49.306;8.636;2023-03-07T00:12:16;4.08;72.84
25945;SHT31;13742;49.306;8.636;2023-03-07T00:13:16;4.09;72.73
25945;SHT31;13742;49.306;8.636;2023-03-07T00:14:16;4.09;72.71
25945;SHT31;13742;49.306;8.636;2023-03-07T00:15:17;4.08;72.68
25945;SHT31;13742;49.306;8.636;2023-03-07T00:16:19;4.08;72.44
25945;SHT31;13742;49.306;8.636;2023-03-07T00:17:16;4.11;72.42
25945;SHT31;13742;49.306;8.636;2023-03-07T00:18:16;4.08;72.56
25945;SHT31;13742;49.306;8.636;2023-03-07T00:19:17;4.09;72.59
25945;SHT31;13742;49.306;8.636;2023-03-07T00:20:16;4.08;72.69
25945;SHT31;13742;49.306;8.636;2023-03-07T00:21:19;4.09;72.63
25945;SHT31;13742;49.306;8.636;2023-03-07T00:22:16;4.09;72.69
25945;SHT31;13742;49.306;8.636;2023-03-07T00:23:16;4.08;72.50
25945;SHT31;13742;49.306;8.636;2023-03-07T00:24:16;4.13;72.45
25945;SHT31;13742;49.306;8.636;2023-03-07T00:25:16;4.09;72.51
25945;SHT31;13742;49.306;8.636;2023-03-07T00:26:19;4.12;72.44
25945;SHT31;13742;49.306;8.636;2023-03-07T00:27:16;4.12;72.23
25945;SHT31;13742;49.306;8.636;2023-03-07T00:28:16;4.12;72.26
25945;SHT31;13742;49.306;8.636;2023-03-07T00:29:16;4.11;72.14
25945;SHT31;13742;49.306;8.636;2023-03-07T00:30:16;4.12;72.11
25945;SHT31;13742;49.306;8.636;2023-03-07T00:31:18;4.11;72.21
25945;SHT31;13742;49.306;8.636;2023-03-07T00:32:16;4.13;72.31
25945;SHT31;13742;49.306;8.636;2023-03-07T00:33:16;4.12;72.21
25945;SHT31;13742;49.306;8.636;2023-03-07T00:34:16;4.12;72.17
25945;SHT31;13742;49.306;8.636;2023-03-07T00:35:16;4.12;72.20
25945;SHT31;13742;49.306;8.636;2023-03-07T00:36:21;4.13;72.17
25945;SHT31;13742;49.306;8.636;2023-03-07T00:37:16;4.13;71.97
25945;SHT31;13742;49.306;8.636;2023-03-07T00:38:16;4.15;71.99
25945;SHT31;13742;49.306;8.636;2023-03-07T00:39:16;4.13;71.96
25945;SHT31;13742;49.306;8.636;2023-03-07T00:40:16;4.18;72.06
25945;SHT31;13742;49.306;8.636;2023-03-07T00:41:30;4.15;72.09
25945;SHT31;13742;49.306;8.636;2023-03-07T00:42:16;4.15;72.05
25945;SHT31;13742;49.306;8.636;2023-03-07T00:43:16;4.16;71.95
25945;SHT31;13742;49.306;8.636;2023-03-07T00:44:16;4.15;71.97
25945;SHT31;13742;49.306;8.636;2023-03-07T00:45:16;4.18;71.83
25945;SHT31;13742;49.306;8.636;2023-03-07T00:46:18;4.15;71.74
25945;SHT31;13742;49.306;8.636;2023-03-07T00:47:16;4.16;71.73
25945;SHT31;13742;49.306;8.636;2023-03-07T00:48:17;4.16;71.69
25945;SHT31;13742;49.306;8.636;2023-03-07T00:49:16;4.16;71.73
25945;SHT31;13742;49.306;8.636;2023-03-07T00:50:16;4.15;71.80
25945;SHT31;13742;49.306;8.636;2023-03-07T00:51:18;4.13;71.78
25945;SHT31;13742;49.306;8.636;2023-03-07T00:52:16;4.18;71.82
25945;SHT31;13742;49.306;8.636;2023-03-07T00:53:16;4.13;71.88
25945;SHT31;13742;49.306;8.636;2023-03-07T00:54:16;4.18;71.93
25945;SHT31;13742;49.306;8.636;2023-03-07T00:55:16;4.15;72.00
25945;SHT31;13742;49.306;8.636;2023-03-07T00:56:19;4.15;72.02
25945;SHT31;13742;49.306;8.636;2023-03-07T00:57:16;4.18;71.95
25945;SHT31;13742;49.306;8.636;2023-03-07T00:58:16;4.16;71.83
25945;SHT31;13742;49.306;8.636;2023-03-07T00:59:17;4.18;72.01
25945;SHT31;13742;49.306;8.636;2023-03-07T01:00:16;4.16;72.12
25945;SHT31;13742;49.306;8.636;2023-03-07T01:01:19;4.18;71.97
25945;SHT31;13742;49.306;8.636;2023-03-07T01:02:16;4.15;72.12
25945;SHT31;13742;49.306;8.636;2023-03-07T01:03:16;4.18;72.08
25945;SHT31;13742;49.306;8.636;2023-03-07T01:04:16;4.18;72.24
25945;SHT31;13742;49.306;8.636;2023-03-07T01:05:16;4.16;72.33
25945;SHT31;13742;49.306;8.636;2023-03-07T01:06:18;4.16;72.55
25945;SHT31;13742;49.306;8.636;2023-03-07T01:07:16;4.16;72.72
25945;SHT31;13742;49.306;8.636;2023-03-07T01:08:18;4.18;72.62
25945;SHT31;13742;49.306;8.636;2023-03-07T01:09:16;4.16;72.69
25945;SHT31;13742;49.306;8.636;2023-03-07T01:10:17;4.18;72.97
25945;SHT31;13742;49.306;8.636;2023-03-07T01:11:16;4.18;73.16
25945;SHT31;13742;49.306;8.636;2023-03-07T01:12:16;4.16;73.31
25945;SHT31;13742;49.306;8.636;2023-03-07T01:13:17;4.16;73.23
25945;SHT31;13742;49.306;8.636;2023-03-07T01:14:16;4.16;73.26
25945;SHT31;13742;49.306;8.636;2023-03-07T01:15:16;4.18;73.48
25945;SHT31;13742;49.306;8.636;2023-03-07T01:16:19;4.15;74.00
25945;SHT31;13742;49.306;8.636;2023-03-07T01:17:16;4.18;73.96
25945;SHT31;13742;49.306;8.636;2023-03-07T01:18:16;4.18;73.90
25945;SHT31;13742;49.306;8.636;2023-03-07T01:19:16;4.16;73.61
25945;SHT31;13742;49.306;8.636;2023-03-07T01:20:16;4.18;73.77
25945;SHT31;13742;49.306;8.636;2023-03-07T01:22:16;4.16;73.80
25945;SHT31;13742;49.306;8.636;2023-03-07T01:23:16;4.16;73.91
25945;SHT31;13742;49.306;8.636;2023-03-07T01:24:17;4.19;73.83
25945;SHT31;13742;49.306;8.636;2023-03-07T01:25:16;4.15;73.72
25945;SHT31;13742;49.306;8.636;2023-03-07T01:26:19;4.18;73.90
25945;SHT31;13742;49.306;8.636;2023-03-07T01:27:16;4.16;74.02
25945;SHT31;13742;49.306;8.636;2023-03-07T01:28:16;4.18;74.13
25945;SHT31;13742;49.306;8.636;2023-03-07T01:29:16;4.15;73.93
25945;SHT31;13742;49.306;8.636;2023-03-07T01:30:16;4.18;74.12
25945;SHT31;13742;49.306;8.636;2023-03-07T01:31:16;4.15;74.19
25945;SHT31;13742;49.306;8.636;2023-03-07T01:32:16;4.15;74.17
25945;SHT31;13742;49.306;8.636;2023-03-07T01:33:16;4.15;74.29
25945;SHT31;13742;49.306;8.636;2023-03-07T01:34:16;4.16;74.29
25945;SHT31;13742;49.306;8.636;2023-03-07T01:35:16;4.13;74.13
25945;SHT31;13742;49.306;8.636;2023-03-07T01:36:20;4.13;74.11
25945;SHT31;13742;49.306;8.636;2023-03-07T01:37:17;4.12;74.37
25945;SHT31;13742;49.306;8.636;2023-03-07T01:38:16;4.15;74.51
25945;SHT31;13742;49.306;8.636;2023-03-07T01:39:16;4.16;74.40
25945;SHT31;13742;49.306;8.636;2023-03-07T01:40:17;4.12;74.60
25945;SHT31;13742;49.306;8.636;2023-03-07T01:41:16;4.13;74.65
25945;SHT31;13742;49.306;8.636;2023-03-07T01:42:16;4.13;74.37
25945;SHT31;13742;49.306;8.636;2023-03-07T01:43:23;4.16;74.30
25945;SHT31;13742;49.306;8.636;2023-03-07T01:44:21;4.13;74.49
25945;SHT31;13742;49.306;8.636;2023-03-07T01:46:32;4.18;74.37
25945;SHT31;13742;49.306;8.636;2023-03-07T01:47:16;4.16;74.34
25945;SHT31;13742;49.306;8.636;2023-03-07T01:48:16;4.18;74.37
25945;SHT31;13742;49.306;8.636;2023-03-07T01:49:19;4.18;74.50
25945;SHT31;13742;49.306;8.636;2023-03-07T01:50:17;4.15;74.45
25945;SHT31;13742;49.306;8.636;2023-03-07T01:51:17;4.15;74.74
25945;SHT31;13742;49.306;8.636;2023-03-07T01:52:24;4.13;74.81
25945;SHT31;13742;49.306;8.636;2023-03-07T01:53:16;4.18;74.77
25945;SHT31;13742;49.306;8.636;2023-03-07T01:54:18;4.16;74.81
25945;SHT31;13742;49.306;8.636;2023-03-07T01:55:19;4.16;74.75
25945;SHT31;13742;49.306;8.636;2023-03-07T01:56:16;4.12;74.86
25945;SHT31;13742;49.306;8.636;2023-03-07T01:57:18;4.16;75.14
25945;SHT31;13742;49.306;8.636;2023-03-07T01:58:16;4.16;75.03
25945;SHT31;13742;49.306;8.636;2023-03-07T01:59:22;4.12;75.28
25945;SHT31;13742;49.306;8.636;2023-03-07T02:00:22;4.12;75.38
25945;SHT31;13742;49.306;8.636;2023-03-07T02:01:16;4.12;75.46
25945;SHT31;13742;49.306;8.636;2023-03-07T02:02:18;4.11;75.58
25945;SHT31;13742;49.306;8.636;2023-03-07T02:03:21;4.11;75.47
25945;SHT31;13742;49.306;8.636;2023-03-07T02:04:23;4.13;75.53
25945;SHT31;13742;49.306;8.636;2023-03-07T02:05:23;4.12;75.62
25945;SHT31;13742;49.306;8.636;2023-03-07T02:06:17;4.13;75.59
25945;SHT31;13742;49.306;8.636;2023-03-07T02:07:20;4.12;75.32
25945;SHT31;13742;49.306;8.636;2023-03-07T02:08:17;4.13;75.59
25945;SHT31;13742;49.306;8.636;2023-03-07T02:09:18;4.12;75.62
25945;SHT31;13742;49.306;8.636;2023-03-07T02:10:19;4.09;75.98
25945;SHT31;13742;49.306;8.636;2023-03-07T02:11:16;4.09;76.28
25945;SHT31;13742;49.306;8.636;2023-03-07T02:12:16;4.09;75.97
25945;SHT31;13742;49.306;8.636;2023-03-07T02:13:16;4.11;75.93
25945;SHT31;13742;49.306;8.636;2023-03-07T02:14:16;4.08;76.22
25945;SHT31;13742;49.306;8.636;2023-03-07T02:15:16;4.06;76.22
25945;SHT31;13742;49.306;8.636;2023-03-07T02:16:16;4.08;76.22
25945;SHT31;13742;49.306;8.636;2023-03-07T02:17:17;4.08;76.30
25945;SHT31;13742;49.306;8.636;2023-03-07T02:18:20;4.08;76.28
25945;SHT31;13742;49.306;8.636;2023-03-07T02:22:17;4.02;76.84
25945;SHT31;13742;49.306;8.636;2023-03-07T02:23:23;4.01;77.05
25945;SHT31;13742;49.306;8.636;2023-03-07T02:24:25;4.02;76.94
25945;SHT31;13742;49.306;8.636;2023-03-07T02:25:21;4.02;76.81
25945;SHT31;13742;49.306;8.636;2023-03-07T02:26:41;3.95;77.34
25945;SHT31;13742;49.306;8.636;2023-03-07T02:27:16;3.95;77.78
25945;SHT31;13742;49.306;8.636;2023-03-07T02:28:16;3.97;77.63
25945;SHT31;13742;49.306;8.636;2023-03-07T02:29:16;3.98;77.65
25945;SHT31;13742;49.306;8.636;2023-03-07T02:30:16;3.97;77.73
25945;SHT31;13742;49.306;8.636;2023-03-07T02:31:16;3.97;77.98
25945;SHT31;13742;49.306;8.636;2023-03-07T02:32:16;3.98;78.02
25945;SHT31;13742;49.306;8.636;2023-03-07T02:33:16;3.98;77.96
25945;SHT31;13742;49.306;8.636;2023-03-07T02:34:22;3.94;78.42
25945;SHT31;13742;49.306;8.636;2023-03-07T02:35:22;3.97;78.06
25945;SHT31;13742;49.306;8.636;2023-03-07T02:36:21;3.95;78.47
25945;SHT31;13742;49.306;8.636;2023-03-07T02:37:23;3.97;78.43
25945;SHT31;13742;49.306;8.636;2023-03-07T02:38:16;3.92;78.58
25945;SHT31;13742;49.306;8.636;2023-03-07T02:39:18;3.92;78.88
25945;SHT31;13742;49.306;8.636;2023-03-07T02:40:19;3.94;78.72
25945;SHT31;13742;49.306;8.636;2023-03-07T02:41:21;3.91;79.10
25945;SHT31;13742;49.306;8.636;2023-03-07T02:42:20;3.91;79.14
25945;SHT31;13742;49.306;8.636;2023-03-07T02:43:16;3.91;79.04
25945;SHT31;13742;49.306;8.636;2023-03-07T02:44:16;3.92;78.66
25945;SHT31;13742;49.306;8.636;2023-03-07T02:45:17;3.92;79.03
25945;SHT31;13742;49.306;8.636;2023-03-07T02:46:16;3.91;79.07
25945;SHT31;13742;49.306;8.636;2023-03-07T02:47:16;3.90;79.26
25945;SHT31;13742;49.306;8.636;2023-03-07T02:48:16;3.91;79.34
25945;SHT31;13742;49.306;8.636;2023-03-07T02:49:17;3.90;79.37
25945;SHT31;13742;49.306;8.636;2023-03-07T02:50:16;3.88;79.60
25945;SHT31;13742;49.306;8.636;2023-03-07T02:51:16;3.88;79.48
25945;SHT31;13742;49.306;8.636;2023-03-07T02:52:16;3.88;79.70
25945;SHT31;13742;49.306;8.636;2023-03-07T02:53:16;3.84;79.88
25945;SHT31;13742;49.306;8.636;2023-03-07T02:54:16;3.84;79.86
25945;SHT31;13742;49.306;8.636;2023-03-07T02:55:16;3.81;79.83
25945;SHT31;13742;49.306;8.636;2023-03-07T02:56:16;3.82;79.96
25945;SHT31;13742;49.306;8.636;2023-03-07T02:57:16;3.82;80.04
25945;SHT31;13742;49.306;8.636;2023-03-07T02:58:16;3.81;80.35
25945;SHT31;13742;49.306;8.636;2023-03-07T02:59:16;3.81;80.29
25945;SHT31;13742;49.306;8.636;2023-03-07T03:00:17;3.80;80.27
25945;SHT31;13742;49.306;8.636;2023-03-07T03:01:16;3.82;80.07
25945;SHT31;13742;49.306;8.636;2023-03-07T03:02:16;3.80;80.29
25945;SHT31;13742;49.306;8.636;2023-03-07T03:03:16;3.77;80.49
25945;SHT31;13742;49.306;8.636;2023-03-07T03:04:16;3.74;80.53
25945;SHT31;13742;49.306;8.636;2023-03-07T03:05:16;3.77;80.69
25945;SHT31;13742;49.306;8.636;2023-03-07T03:06:16;3.78;80.82
25945;SHT31;13742;49.306;8.636;2023-03-07T03:07:16;3.75;80.80
25945;SHT31;13742;49.306;8.636;2023-03-07T03:08:16;3.75;80.88
25945;SHT31;13742;49.306;8.636;2023-03-07T03:09:16;3.70;81.01
25945;SHT31;13742;49.306;8.636;2023-03-07T03:10:17;3.73;81.00
25945;SHT31;13742;49.306;8.636;2023-03-07T03:11:16;3.74;80.88
25945;SHT31;13742;49.306;8.636;2023-03-07T03:12:16;3.73;81.00
25945;SHT31;13742;49.306;8.636;2023-03-07T03:13:16;3.71;81.34
25945;SHT31;13742;49.306;8.636;2023-03-07T03:14:16;3.71;81.26
25945;SHT31;13742;49.306;8.636;2023-03-07T03:15:16;3.70;81.33
25945;SHT31;13742;49.306;8.636;2023-03-07T03:16:16;3.71;81.51
25945;SHT31;13742;49.306;8.636;2023-03-07T03:17:16;3.71;81.59
25945;SHT31;13742;49.306;8.636;2023-03-07T03:18:16;3.69;81.54
25945;SHT31;13742;49.306;8.636;2023-03-07T03:19:16;3.69;81.44
25945;SHT31;13742;49.306;8.636;2023-03-07T03:20:18;3.69;81.50
25945;SHT31;13742;49.306;8.636;2023-03-07T03:21:16;3.67;81.72
25945;SHT31;13742;49.306;8.636;2023-03-07T03:22:16;3.69;81.59
25945;SHT31;13742;49.306;8.636;2023-03-07T03:23:16;3.67;81.58
25945;SHT31;13742;49.306;8.636;2023-03-07T03:24:16;3.66;81.61
25945;SHT31;13742;49.306;8.636;2023-03-07T03:25:16;3.66;81.78
25945;SHT31;13742;49.306;8.636;2023-03-07T03:26:16;3.67;81.56
25945;SHT31;13742;49.306;8.636;2023-03-07T03:27:16;3.70;81.45
25945;SHT31;13742;49.306;8.636;2023-03-07T03:28:16;3.66;81.48
25945;SHT31;13742;49.306;8.636;2023-03-07T03:29:16;3.66;81.54
25945;SHT31;13742;49.306;8.636;2023-03-07T03:30:16;3.64;81.95
25945;SHT31;13742;49.306;8.636;2023-03-07T03:31:17;3.61;81.95
25945;SHT31;13742;49.306;8.636;2023-03-07T03:32:16;3.66;81.94
25945;SHT31;13742;49.306;8.636;2023-03-07T03:33:16;3.63;81.90
25945;SHT31;13742;49.306;8.636;2023-03-07T03:34:16;3.66;81.75
25945;SHT31;13742;49.306;8.636;2023-03-07T03:35:16;3.64;81.70
25945;SHT31;13742;49.306;8.636;2023-03-07T03:36:16;3.63;81.67
25945;SHT31;13742;49.306;8.636;2023-03-07T03:37:16;3.63;81.90
25945;SHT31;13742;49.306;8.636;2023-03-07T03:38:16;3.61;81.79
25945;SHT31;13742;49.306;8.636;2023-03-07T03:39:16;3.63;81.80
25945;SHT31;13742;49.306;8.636;2023-03-07T03:40:16;3.67;81.57
25945;SHT31;13742;49.306;8.636;2023-03-07T03:41:16;3.67;81.42
25945;SHT31;13742;49.306;8.636;2023-03-07T03:42:16;3.67;81.35
25945;SHT31;13742;49.306;8.636;2023-03-07T03:43:17;3.67;81.67
25945;SHT31;13742;49.306;8.636;2023-03-07T03:44:16;3.63;81.71
25945;SHT31;13742;49.306;8.636;2023-03-07T03:45:16;3.66;81.62
25945;SHT31;13742;49.306;8.636;2023-03-07T03:46:18;3.67;81.63
25945;SHT31;13742;49.306;8.636;2023-03-07T03:47:16;3.67;81.58
25945;SHT31;13742;49.306;8.636;2023-03-07T03:48:16;3.70;81.52
25945;SHT31;13742;49.306;8.636;2023-03-07T03:49:16;3.70;81.39
25945;SHT31;13742;49.306;8.636;2023-03-07T03:50:16;3.67;81.65
25945;SHT31;13742;49.306;8.636;2023-03-07T03:51:16;3.70;81.68
25945;SHT31;13742;49.306;8.636;2023-03-07T03:52:16;3.71;81.33
25945;SHT31;13742;49.306;8.636;2023-03-07T03:53:16;3.71;81.28
25945;SHT31;13742;49.306;8.636;2023-03-07T03:54:16;3.69;81.51
25945;SHT31;13742;49.306;8.636;2023-03-07T03:55:16;3.71;81.38
25945;SHT31;13742;49.306;8.636;2023-03-07T03:56:19;3.69;81.40
25945;SHT31;13742;49.306;8.636;2023-03-07T03:57:19;3.70;81.13
25945;SHT31;13742;49.306;8.636;2023-03-07T03:58:16;3.71;80.92
25945;SHT31;13742;49.306;8.636;2023-03-07T03:59:16;3.73;81.15
25945;SHT31;13742;49.306;8.636;2023-03-07T04:00:18;3.71;81.47
25945;SHT31;13742;49.306;8.636;2023-03-07T04:01:17;3.74;81.24
25945;SHT31;13742;49.306;8.636;2023-03-07T04:02:16;3.73;81.12
25945;SHT31;13742;49.306;8.636;2023-03-07T04:03:16;3.74;80.97
25945;SHT31;13742;49.306;8.636;2023-03-07T04:04:16;3.74;81.12
25945;SHT31;13742;49.306;8.636;2023-03-07T04:05:16;3.74;81.24
25945;SHT31;13742;49.306;8.636;2023-03-07T04:06:26;3.74;81.07
25945;SHT31;13742;49.306;8.636;2023-03-07T04:07:16;3.74;81.05
25945;SHT31;13742;49.306;8.636;2023-03-07T04:08:16;3.74;81.06
25945;SHT31;13742;49.306;8.636;2023-03-07T04:09:16;3.75;80.79
25945;SHT31;13742;49.306;8.636;2023-03-07T04:10:16;3.74;80.79
25945;SHT31;13742;49.306;8.636;2023-03-07T04:11:16;3.77;80.83
25945;SHT31;13742;49.306;8.636;2023-03-07T04:12:16;3.75;80.63
25945;SHT31;13742;49.306;8.636;2023-03-07T04:13:16;3.75;80.61
25945;SHT31;13742;49.306;8.636;2023-03-07T04:14:16;3.74;80.65
25945;SHT31;13742;49.306;8.636;2023-03-07T04:15:16;3.73;80.67
25945;SHT31;13742;49.306;8.636;2023-03-07T04:16:17;3.74;80.76
25945;SHT31;13742;49.306;8.636;2023-03-07T04:17:16;3.73;80.58
25945;SHT31;13742;49.306;8.636;2023-03-07T04:18:20;3.73;80.60
25945;SHT31;13742;49.306;8.636;2023-03-07T04:19:17;3.74;80.33
25945;SHT31;13742;49.306;8.636;2023-03-07T04:20:16;3.73;80.38
25945;SHT31;13742;49.306;8.636;2023-03-07T04:21:17;3.74;80.18
25945;SHT31;13742;49.306;8.636;2023-03-07T04:22:16;3.75;80.40
25945;SHT31;13742;49.306;8.636;2023-03-07T04:23:17;3.75;80.27
25945;SHT31;13742;49.306;8.636;2023-03-07T04:24:16;3.74;80.14
25945;SHT31;13742;49.306;8.636;2023-03-07T04:25:16;3.74;79.94
25945;SHT31;13742;49.306;8.636;2023-03-07T04:26:16;3.73;80.14
25945;SHT31;13742;49.306;8.636;2023-03-07T04:27:16;3.71;79.98
25945;SHT31;13742;49.306;8.636;2023-03-07T04:28:17;3.73;79.70
25945;SHT31;13742;49.306;8.636;2023-03-07T04:29:16;3.74;79.38
25945;SHT31;13742;49.306;8.636;2023-03-07T04:30:16;3.75;79.28
25945;SHT31;13742;49.306;8.636;2023-03-07T04:31:22;3.75;79.31
25945;SHT31;13742;49.306;8.636;2023-03-07T04:32:16;3.75;79.44
25945;SHT31;13742;49.306;8.636;2023-03-07T04:33:16;3.75;79.56
25945;SHT31;13742;49.306;8.636;2023-03-07T04:34:16;3.78;79.46
25945;SHT31;13742;49.306;8.636;2023-03-07T04:35:16;3.74;79.44
25945;SHT31;13742;49.306;8.636;2023-03-07T04:36:17;3.77;79.55
25945;SHT31;13742;49.306;8.636;2023-03-07T04:37:16;3.77;79.53
25945;SHT31;13742;49.306;8.636;2023-03-07T04:38:16;3.78;79.11
25945;SHT31;13742;49.306;8.636;2023-03-07T04:39:16;3.75;79.13
25945;SHT31;13742;49.306;8.636;2023-03-07T04:40:16;3.75;79.28
25945;SHT31;13742;49.306;8.636;2023-03-07T04:41:21;3.80;79.15
25945;SHT31;13742;49.306;8.636;2023-03-07T04:42:16;3.80;79.22
25945;SHT31;13742;49.306;8.636;2023-03-07T04:43:16;3.80;79.28
25945;SHT31;13742;49.306;8.636;2023-03-07T04:44:16;3.78;79.01
25945;SHT31;13742;49.306;8.636;2023-03-07T04:45:16;3.80;79.09
25945;SHT31;13742;49.306;8.636;2023-03-07T04:46:17;3.80;79.21
25945;SHT31;13742;49.306;8.636;2023-03-07T04:47:16;3.77;79.13
25945;SHT31;13742;49.306;8.636;2023-03-07T04:48:16;3.80;79.17
25945;SHT31;13742;49.306;8.636;2023-03-07T04:49:16;3.78;79.17
25945;SHT31;13742;49.306;8.636;2023-03-07T04:50:17;3.81;79.17
25945;SHT31;13742;49.306;8.636;2023-03-07T04:51:16;3.82;79.21
25945;SHT31;13742;49.306;8.636;2023-03-07T04:52:16;3.82;79.01
25945;SHT31;13742;49.306;8.636;2023-03-07T04:53:17;3.81;78.77
25945;SHT31;13742;49.306;8.636;2023-03-07T04:54:16;3.82;78.74
25945;SHT31;13742;49.306;8.636;2023-03-07T04:55:16;3.82;78.58
25945;SHT31;13742;49.306;8.636;2023-03-07T04:56:16;3.82;78.79
25945;SHT31;13742;49.306;8.636;2023-03-07T04:57:16;3.84;78.70
25945;SHT31;13742;49.306;8.636;2023-03-07T04:58:16;3.84;78.86
25945;SHT31;13742;49.306;8.636;2023-03-07T04:59:16;3.85;78.78
25945;SHT31;13742;49.306;8.636;2023-03-07T05:00:17;3.81;78.92
25945;SHT31;13742;49.306;8.636;2023-03-07T05:01:16;3.84;78.91
25945;SHT31;13742;49.306;8.636;2023-03-07T05:02:16;3.87;78.74
25945;SHT31;13742;49.306;8.636;2023-03-07T05:03:16;3.87;78.57
25945;SHT31;13742;49.306;8.636;2023-03-07T05:04:16;3.85;78.46
25945;SHT31;13742;49.306;8.636;2023-03-07T05:05:16;3.84;78.35
25945;SHT31;13742;49.306;8.636;2023-03-07T05:06:16;3.85;78.22
25945;SHT31;13742;49.306;8.636;2023-03-07T05:07:16;3.88;78.18
25945;SHT31;13742;49.306;8.636;2023-03-07T05:08:16;3.90;78.06
25945;SHT31;13742;49.306;8.636;2023-03-07T05:09:16;3.88;78.17
25945;SHT31;13742;49.306;8.636;2023-03-07T05:10:16;3.90;78.12
25945;SHT31;13742;49.306;8.636;2023-03-07T05:11:17;3.91;78.03
25945;SHT31;13742;49.306;8.636;2023-03-07T05:12:16;3.90;77.85
25945;SHT31;13742;49.306;8.636;2023-03-07T05:13:16;3.92;77.94
25945;SHT31;13742;49.306;8.636;2023-03-07T05:14:16;3.91;78.10
25945;SHT31;13742;49.306;8.636;2023-03-07T05:15:16;3.92;77.94
25945;SHT31;13742;49.306;8.636;2023-03-07T05:16:17;3.92;77.97
25945;SHT31;13742;49.306;8.636;2023-03-07T05:17:17;3.92;78.00
25945;SHT31;13742;49.306;8.636;2023-03-07T05:18:16;3.92;78.03
25945;SHT31;13742;49.306;8.636;2023-03-07T05:19:16;3.95;78.06
25945;SHT31;13742;49.306;8.636;2023-03-07T05:20:16;3.91;77.74
25945;SHT31;13742;49.306;8.636;2023-03-07T05:21:16;3.94;77.75
25945;SHT31;13742;49.306;8.636;2023-03-07T05:22:16;3.92;77.59
25945;SHT31;13742;49.306;8.636;2023-03-07T05:23:17;3.95;77.57
25945;SHT31;13742;49.306;8.636;2023-03-07T05:24:16;3.95;77.71
25945;SHT31;13742;49.306;8.636;2023-03-07T05:25:16;3.97;77.49
25945;SHT31;13742;49.306;8.636;2023-03-07T05:26:16;3.95;77.45
25945;SHT31;13742;49.306;8.636;2023-03-07T05:27:16;3.94;77.28
25945;SHT31;13742;49.306;8.636;2023-03-07T05:28:16;3.97;77.33
25945;SHT31;13742;49.306;8.636;2023-03-07T05:29:16;3.95;77.30
25945;SHT31;13742;49.306;8.636;2023-03-07T05:30:16;3.95;77.30
25945;SHT31;13742;49.306;8.636;2023-03-07T05:31:16;3.98;77.23
25945;SHT31;13742;49.306;8.636;2023-03-07T05:32:16;3.97;76.84
25945;SHT31;13742;49.306;8.636;2023-03-07T05:33:16;3.97;76.99
25945;SHT31;13742;49.306;8.636;2023-03-07T05:34:16;4.00;76.81
25945;SHT31;13742;49.306;8.636;2023-03-07T05:35:16;3.97;77.03
25945;SHT31;13742;49.306;8.636;2023-03-07T05:36:16;4.00;76.97
25945;SHT31;13742;49.306;8.636;2023-03-07T05:37:16;3.98;77.00
25945;SHT31;13742;49.306;8.636;2023-03-07T05:38:16;3.98;76.75
25945;SHT31;13742;49.306;8.636;2023-03-07T05:39:16;4.00;76.63
25945;SHT31;13742;49.306;8.636;2023-03-07T05:40:16;4.00;76.74
25945;SHT31;13742;49.306;8.636;2023-03-07T05:41:17;3.98;76.81
25945;SHT31;13742;49.306;8.636;2023-03-07T05:42:16;4.01;76.78
25945;SHT31;13742;49.306;8.636;2023-03-07T05:43:16;4.01;76.62
25945;SHT31;13742;49.306;8.636;2023-03-07T05:44:16;3.98;76.62
25945;SHT31;13742;49.306;8.636;2023-03-07T05:45:16;4.00;76.68
25945;SHT31;13742;49.306;8.636;2023-03-07T05:46:16;4.01;76.66
25945;SHT31;13742;49.306;8.636;2023-03-07T05:47:16;4.01;76.66
25945;SHT31;13742;49.306;8.636;2023-03-07T05:48:16;4.01;76.54
25945;SHT31;13742;49.306;8.636;2023-03-07T05:49:16;4.01;76.63
25945;SHT31;13742;49.306;8.636;2023-03-07T05:50:18;4.00;76.53
25945;SHT31;13742;49.306;8.636;2023-03-07T05:51:16;4.01;76.58
25945;SHT31;13742;49.306;8.636;2023-03-07T05:52:16;4.02;76.54
25945;SHT31;13742;49.306;8.636;2023-03-07T05:53:16;4.02;76.58
25945;SHT31;13742;49.306;8.636;2023-03-07T05:54:16;4.01;76.51
25945;SHT31;13742;49.306;8.636;2023-03-07T05:55:16;4.00;76.57
25945;SHT31;13742;49.306;8.636;2023-03-07T05:56:16;4.00;76.56
25945;SHT31;13742;49.306;8.636;2023-03-07T05:57:16;4.00;76.12
25945;SHT31;13742;49.306;8.636;2023-03-07T05:58:16;4.02;76.22
25945;SHT31;13742;49.306;8.636;2023-03-07T05:59:16;4.01;76.02
25945;SHT31;13742;49.306;8.636;2023-03-07T06:00:17;4.01;75.94
25945;SHT31;13742;49.306;8.636;2023-03-07T06:01:16;4.01;75.91
25945;SHT31;13742;49.306;8.636;2023-03-07T06:02:16;4.02;75.90
25945;SHT31;13742;49.306;8.636;2023-03-07T06:03:16;4.01;76.01
25945;SHT31;13742;49.306;8.636;2023-03-07T06:04:16;4.02;75.83
25945;SHT31;13742;49.306;8.636;2023-03-07T06:05:16;4.02;75.80
25945;SHT31;13742;49.306;8.636;2023-03-07T06:06:16;4.02;75.85
25945;SHT31;13742;49.306;8.636;2023-03-07T06:07:16;4.01;75.88
25945;SHT31;13742;49.306;8.636;2023-03-07T06:08:16;4.00;75.94
25945;SHT31;13742;49.306;8.636;2023-03-07T06:09:16;4.05;75.88
25945;SHT31;13742;49.306;8.636;2023-03-07T06:10:16;4.01;75.91
25945;SHT31;13742;49.306;8.636;2023-03-07T06:11:16;4.02;75.79
25945;SHT31;13742;49.306;8.636;2023-03-07T06:12:16;4.02;75.62
25945;SHT31;13742;49.306;8.636;2023-03-07T06:13:23;4.02;75.36
25945;SHT31;13742;49.306;8.636;2023-03-07T06:14:16;4.02;75.43
25945;SHT31;13742;49.306;8.636;2023-03-07T06:15:16;4.01;75.52
25945;SHT31;13742;49.306;8.636;2023-03-07T06:16:16;4.01;75.45
25945;SHT31;13742;49.306;8.636;2023-03-07T06:17:16;4.01;75.37
25945;SHT31;13742;49.306;8.636;2023-03-07T06:18:17;4.02;75.33
25945;SHT31;13742;49.306;8.636;2023-03-07T06:19:16;4.02;75.22
25945;SHT31;13742;49.306;8.636;2023-03-07T06:20:16;4.00;75.18
25945;SHT31;13742;49.306;8.636;2023-03-07T06:21:17;4.01;75.24
25945;SHT31;13742;49.306;8.636;2023-03-07T06:22:16;4.02;74.95
25945;SHT31;13742;49.306;8.636;2023-03-07T06:23:16;4.04;74.84
25945;SHT31;13742;49.306;8.636;2023-03-07T06:24:16;4.02;74.88
25945;SHT31;13742;49.306;8.636;2023-03-07T06:25:16;4.04;74.85
25945;SHT31;13742;49.306;8.636;2023-03-07T06:26:16;4.04;74.65
25945;SHT31;13742;49.306;8.636;2023-03-07T06:27:16;4.05;74.76
25945;SHT31;13742;49.306;8.636;2023-03-07T06:28:16;4.02;74.68
25945;SHT31;13742;49.306;8.636;2023-03-07T06:29:16;4.06;74.72